createdAt,value
2024-04-08T01:47:37.284Z,1.70
2024-04-08T01:50:03.816Z,1.90
2024-04-08T01:52:30.283Z,1.90
2024-04-08T01:54:57.223Z,1.70
2024-04-08T01:57:23.706Z,2.05
2024-04-08T01:59:50.202Z,1.90
2024-04-08T02:02:16.715Z,1.77
2024-04-08T02:04:43.169Z,2.38
2024-04-08T02:07:09.631Z,1.90
2024-04-08T02:09:36.306Z,2.03
2024-04-08T02:12:03.428Z,2.28
2024-04-08T02:14:29.979Z,2.30
2024-04-08T02:16:57.005Z,2.20
2024-04-08T02:19:26.486Z,2.00
2024-04-08T02:21:53.036Z,2.58
2024-04-08T02:24:19.625Z,2.65
2024-04-08T02:26:46.748Z,2.45
2024-04-08T02:29:13.784Z,2.50
2024-04-08T02:31:40.290Z,2.42
2024-04-08T02:34:06.776Z,2.70
2024-04-08T02:36:33.206Z,2.58
2024-04-08T02:38:59.643Z,2.40
2024-04-08T02:41:26.072Z,2.53
2024-04-08T02:43:52.762Z,3.17
2024-04-08T02:46:19.271Z,2.70
2024-04-08T02:48:45.726Z,2.63
2024-04-08T02:51:12.152Z,2.90
2024-04-08T02:53:38.648Z,3.25
2024-04-08T02:56:08.613Z,3.10
2024-04-08T02:58:35.051Z,3.15
2024-04-08T03:01:08.826Z,2.92
2024-04-08T03:03:35.255Z,2.97
2024-04-08T03:06:11.114Z,3.15
2024-04-08T03:08:37.714Z,3.00
2024-04-08T03:11:04.913Z,3.10
2024-04-08T03:13:31.471Z,2.75
2024-04-08T03:15:58.156Z,3.35
2024-04-08T03:18:25.051Z,3.50
2024-04-08T03:20:58.247Z,3.08
2024-04-08T03:23:24.704Z,3.03
2024-04-08T03:26:00.946Z,3.45
2024-04-08T03:28:27.682Z,3.22
2024-04-08T03:30:54.180Z,3.78
2024-04-08T03:33:21.339Z,3.40
2024-04-08T03:35:48.633Z,3.85
2024-04-08T03:38:15.495Z,3.65
2024-04-08T03:40:42.403Z,3.53
2024-04-08T03:43:09.026Z,4.00
2024-04-08T03:45:35.564Z,3.65
2024-04-08T03:48:02.142Z,3.63
2024-04-08T03:50:29.272Z,3.65
2024-04-08T03:52:55.765Z,3.40
2024-04-08T03:55:26.616Z,2.95
2024-04-08T03:57:53.148Z,3.17
2024-04-08T04:00:19.684Z,3.58
2024-04-08T04:02:46.315Z,3.40
2024-04-08T04:05:12.949Z,3.78
2024-04-08T04:07:39.414Z,3.40
2024-04-08T04:10:06.263Z,3.85
2024-04-08T04:12:42.805Z,4.00
2024-04-08T04:15:13.806Z,3.80
2024-04-08T04:17:40.784Z,3.13
2024-04-08T04:20:10.548Z,3.90
2024-04-08T04:22:37.509Z,3.90
2024-04-08T04:25:04.387Z,3.70
2024-04-08T04:27:30.989Z,4.25
2024-04-08T04:29:57.517Z,3.50
2024-04-08T04:32:24.031Z,3.30
2024-04-08T04:34:50.802Z,3.38
2024-04-08T04:37:17.310Z,3.22
2024-04-08T04:39:43.849Z,3.58
2024-04-08T04:42:10.323Z,3.33
2024-04-08T04:44:36.846Z,3.05
2024-04-08T04:47:03.432Z,3.05
2024-04-08T04:49:29.957Z,3.42
2024-04-08T04:51:56.463Z,3.40
2024-04-08T04:54:22.964Z,3.55
2024-04-08T04:56:49.443Z,3.88
2024-04-08T04:59:15.953Z,3.40
2024-04-08T05:01:42.473Z,3.30
2024-04-08T05:04:09.728Z,3.47
2024-04-08T05:06:36.201Z,4.07
2024-04-08T05:09:03.888Z,4.00
2024-04-08T05:11:30.336Z,3.40
2024-04-08T05:13:56.977Z,3.70
2024-04-08T05:16:23.503Z,3.53
2024-04-08T05:18:49.924Z,3.50
2024-04-08T05:21:16.430Z,3.65
2024-04-08T05:23:45.903Z,3.95
2024-04-08T05:26:12.644Z,3.25
2024-04-08T05:28:39.315Z,3.78
2024-04-08T05:31:05.825Z,4.18
2024-04-08T05:33:32.357Z,3.70
2024-04-08T05:35:59.076Z,4.40
2024-04-08T05:38:25.741Z,3.60
2024-04-08T05:40:52.386Z,4.30
2024-04-08T05:43:20.199Z,4.00
2024-04-08T05:45:48.181Z,4.15
2024-04-08T05:48:15.979Z,4.35
2024-04-08T05:50:42.514Z,3.88
2024-04-08T05:53:08.965Z,3.25
2024-04-08T05:55:35.611Z,3.97
2024-04-08T05:58:04.021Z,4.38
2024-04-08T06:02:57.221Z,4.90
2024-04-08T06:05:25.428Z,4.35
2024-04-08T06:07:51.928Z,4.55
2024-04-08T06:10:21.698Z,4.22
2024-04-08T06:12:48.273Z,4.35
2024-04-08T06:15:15.813Z,4.07
2024-04-08T06:17:43.254Z,3.23
2024-04-08T06:20:10.281Z,4.40
2024-04-08T06:22:36.969Z,4.28
2024-04-08T06:25:04.005Z,4.05
2024-04-08T06:27:30.558Z,4.35
2024-04-08T06:29:57.186Z,4.30
2024-04-08T06:32:23.759Z,4.22
2024-04-08T06:34:50.224Z,4.75
2024-04-08T06:37:16.786Z,4.07
2024-04-08T06:39:43.486Z,4.10
2024-04-08T06:42:19.886Z,3.78
2024-04-08T06:44:49.989Z,4.20
2024-04-08T06:47:16.779Z,4.90
2024-04-08T06:49:43.979Z,3.55
2024-04-08T06:52:10.438Z,3.72
2024-04-08T06:54:36.906Z,3.80
2024-04-08T06:57:03.667Z,3.53
2024-04-08T06:59:30.227Z,3.08
2024-04-08T07:01:56.865Z,3.25
2024-04-08T07:04:23.775Z,3.22
2024-04-08T07:06:50.348Z,3.28
2024-04-08T07:09:16.792Z,3.33
2024-04-08T07:11:44.299Z,3.15
2024-04-08T07:14:10.747Z,2.53
2024-04-08T07:16:37.371Z,3.55
2024-04-08T07:19:04.319Z,3.05
2024-04-08T07:21:30.854Z,3.30
2024-04-08T07:23:57.358Z,3.45
2024-04-08T07:26:23.893Z,3.67
2024-04-08T07:28:52.066Z,3.20
2024-04-08T07:31:19.119Z,3.30
2024-04-08T07:33:45.611Z,3.97
2024-04-08T07:36:12.140Z,3.58
2024-04-08T07:38:52.430Z,3.50
2024-04-08T07:41:25.056Z,3.95
2024-04-08T07:43:51.527Z,4.15
2024-04-08T07:46:18.019Z,3.13
2024-04-08T07:48:46.875Z,3.40
2024-04-08T07:51:13.316Z,3.42
2024-04-08T07:53:39.859Z,3.38
2024-04-08T07:56:06.434Z,3.20
2024-04-08T07:58:33.514Z,3.63
2024-04-08T08:01:00.727Z,3.72
2024-04-08T08:03:27.813Z,3.35
2024-04-08T08:06:00.244Z,4.05
2024-04-08T08:08:27.593Z,3.78
2024-04-08T08:10:54.126Z,3.47
2024-04-08T08:13:20.574Z,3.60
2024-04-08T08:15:56.569Z,3.58
2024-04-08T08:18:23.726Z,3.67
2024-04-08T08:20:50.576Z,3.63
2024-04-08T08:23:17.280Z,3.78
2024-04-08T08:25:43.790Z,3.30
2024-04-08T08:28:10.354Z,2.40
2024-04-08T08:30:37.177Z,3.17
2024-04-08T08:33:03.759Z,3.08
2024-04-08T08:35:32.256Z,3.55
2024-04-08T08:40:25.300Z,3.15
2024-04-08T08:42:52.246Z,3.00
2024-04-08T08:45:19.282Z,2.50
2024-04-08T08:47:45.876Z,2.50
2024-04-08T08:50:12.438Z,3.17
2024-04-08T08:52:39.093Z,2.60
2024-04-08T08:55:05.990Z,2.55
2024-04-08T08:57:34.100Z,2.58
2024-04-08T09:00:03.691Z,2.53
2024-04-08T09:02:31.980Z,2.92
2024-04-08T09:04:58.416Z,2.70
2024-04-08T09:07:24.919Z,2.58
2024-04-08T09:09:58.463Z,3.35
2024-04-08T09:12:25.608Z,2.80
2024-04-08T09:14:52.779Z,3.10
2024-04-08T09:17:19.753Z,2.85
2024-04-08T09:19:46.358Z,3.65
2024-04-08T09:22:13.082Z,3.88
2024-04-08T09:24:39.654Z,4.30
2024-04-08T09:27:07.115Z,4.57
2024-04-08T09:29:33.801Z,6.82
2024-04-08T09:32:01.981Z,7.13
2024-04-08T09:36:57.875Z,6.78
2024-04-08T09:39:25.234Z,7.03
2024-04-08T09:41:53.038Z,7.53
2024-04-08T09:44:19.778Z,5.03
2024-04-08T09:46:46.802Z,5.90
2024-04-08T09:49:21.272Z,5.47
2024-04-08T09:51:51.664Z,7.63
2024-04-08T09:54:18.135Z,6.37
2024-04-08T09:56:45.763Z,5.45
2024-04-08T09:59:16.626Z,6.30
2024-04-08T10:01:44.344Z,5.35
2024-04-08T10:04:14.714Z,5.15
2024-04-08T10:06:42.456Z,6.03
2024-04-08T10:09:11.063Z,6.07
2024-04-08T10:11:37.563Z,5.18
2024-04-08T10:14:04.131Z,6.80
2024-04-08T10:16:30.701Z,7.53
2024-04-08T10:18:57.567Z,6.75
2024-04-08T10:21:26.429Z,7.25
2024-04-08T10:23:53.702Z,6.45
2024-04-08T10:26:23.604Z,8.00
2024-04-08T10:28:50.381Z,7.35
2024-04-08T10:31:19.995Z,8.13
2024-04-08T10:33:46.496Z,9.00
2024-04-08T10:36:13.061Z,7.25
2024-04-08T10:38:39.534Z,7.47
2024-04-08T10:41:07.131Z,8.80
2024-04-08T10:43:34.487Z,9.50
2024-04-08T10:46:03.081Z,8.35
2024-04-08T10:48:29.595Z,7.55
2024-04-08T10:50:56.525Z,6.32
2024-04-08T10:53:23.016Z,7.10
2024-04-08T10:55:49.479Z,8.02
2024-04-08T10:58:15.916Z,7.95
2024-04-08T11:00:42.500Z,7.50
2024-04-08T11:03:09.930Z,7.13
2024-04-08T11:05:36.415Z,6.10
2024-04-08T11:08:03.018Z,5.70
2024-04-08T11:10:29.841Z,5.05
2024-04-08T11:12:56.495Z,4.93
2024-04-08T11:15:24.079Z,4.85
2024-04-08T11:17:58.099Z,6.03
2024-04-08T11:20:26.714Z,5.45
2024-04-08T11:22:53.649Z,6.40
2024-04-08T11:25:20.115Z,6.28
2024-04-08T11:27:46.947Z,5.32
2024-04-08T11:30:17.802Z,6.18
2024-04-08T11:32:45.098Z,5.82
2024-04-08T11:35:11.688Z,6.20
2024-04-08T11:37:38.153Z,6.50
2024-04-08T11:40:05.988Z,7.55
2024-04-08T11:42:32.976Z,6.18
2024-04-08T11:45:04.662Z,6.53
2024-04-08T11:47:33.909Z,8.10
2024-04-08T11:50:00.425Z,7.55
2024-04-08T11:52:27.239Z,8.65
2024-04-08T11:55:00.247Z,8.90
2024-04-08T11:57:29.347Z,8.98
2024-04-08T11:59:55.928Z,8.10
2024-04-08T12:02:22.898Z,8.80
2024-04-08T12:04:49.343Z,9.50
2024-04-08T12:07:16.858Z,9.40
2024-04-08T12:09:43.427Z,10.60
2024-04-08T12:12:10.614Z,9.18
2024-04-08T12:14:37.231Z,6.83
2024-04-08T12:17:04.369Z,7.85
2024-04-08T12:19:30.811Z,8.40
2024-04-08T12:21:57.321Z,8.80
2024-04-08T12:24:24.292Z,8.38
2024-04-08T12:26:51.073Z,7.22
2024-04-08T12:29:17.650Z,6.57
2024-04-08T12:31:44.130Z,6.03
2024-04-08T12:34:10.687Z,5.43
2024-04-08T12:36:37.174Z,5.40
2024-04-08T12:39:04.383Z,5.00
2024-04-08T12:41:30.929Z,5.20
2024-04-08T12:43:57.511Z,5.22
2024-04-08T12:46:23.971Z,4.70
2024-04-08T12:48:50.532Z,5.65
2024-04-08T12:51:17.463Z,4.57
2024-04-08T12:53:45.418Z,6.32
2024-04-08T12:56:12.820Z,6.13
2024-04-08T12:58:39.298Z,5.53
2024-04-08T13:01:05.786Z,5.80
2024-04-08T13:03:32.326Z,7.35
2024-04-08T13:05:58.862Z,7.15
2024-04-08T13:08:25.364Z,6.60
2024-04-08T13:10:51.848Z,5.97
2024-04-08T13:13:18.327Z,4.75
2024-04-08T13:15:44.797Z,5.20
2024-04-08T13:18:11.369Z,4.93
2024-04-08T13:20:37.976Z,5.50
2024-04-08T13:23:04.513Z,6.00
2024-04-08T13:25:33.184Z,5.38
2024-04-08T13:28:01.182Z,5.95
2024-04-08T13:30:27.699Z,5.22
2024-04-08T13:32:55.094Z,5.70
2024-04-08T13:35:21.777Z,5.53
2024-04-08T13:37:48.274Z,5.47
2024-04-08T13:40:14.791Z,6.15
2024-04-08T13:42:42.441Z,5.80
2024-04-08T13:45:09.006Z,6.75
2024-04-08T13:47:35.542Z,5.78
2024-04-08T13:50:02.037Z,5.95
2024-04-08T13:52:28.470Z,7.07
2024-04-08T13:54:55.029Z,6.78
2024-04-08T13:57:21.567Z,7.70
2024-04-08T13:59:48.347Z,8.15
2024-04-08T14:02:15.618Z,7.60
2024-04-08T14:04:42.291Z,8.77
2024-04-08T14:07:08.816Z,8.20
2024-04-08T14:09:35.365Z,9.35
2024-04-08T14:12:01.938Z,11.10
2024-04-08T14:14:28.399Z,9.65
2024-04-08T14:16:54.900Z,9.05
2024-04-08T14:19:21.453Z,8.30
2024-04-08T14:21:48.180Z,7.90
2024-04-08T14:24:14.648Z,10.00
2024-04-08T14:26:41.230Z,6.80
2024-04-08T14:29:10.604Z,7.03
2024-04-08T14:31:38.472Z,8.00
2024-04-08T14:34:05.131Z,8.15
2024-04-08T14:36:31.673Z,7.78
2024-04-08T14:39:21.476Z,7.97
2024-04-08T14:41:44.959Z,7.50
2024-04-08T14:44:14.859Z,7.85
2024-04-08T14:46:46.623Z,7.25
2024-04-08T14:49:13.286Z,6.85
2024-04-08T14:51:41.426Z,7.15
2024-04-08T14:54:09.814Z,7.55
2024-04-08T14:56:37.137Z,7.50
2024-04-08T14:59:03.975Z,7.97
2024-04-08T15:01:31.135Z,9.10
2024-04-08T15:03:57.797Z,7.53
2024-04-08T15:06:24.466Z,9.65
2024-04-08T15:08:51.049Z,9.27
2024-04-08T15:11:17.565Z,7.57
2024-04-08T15:13:44.074Z,7.63
2024-04-08T15:16:10.641Z,6.70
2024-04-08T15:18:42.093Z,7.03
2024-04-08T15:21:08.874Z,8.75
2024-04-08T15:23:35.439Z,7.72
2024-04-08T15:26:02.019Z,6.55
2024-04-08T15:28:28.674Z,8.13
2024-04-08T15:30:56.038Z,7.47
2024-04-08T15:33:22.918Z,7.93
2024-04-08T15:36:03.922Z,5.90
2024-04-08T15:38:30.461Z,8.38
2024-04-08T15:40:57.375Z,8.40
2024-04-08T15:43:25.279Z,9.45
2024-04-08T15:48:18.241Z,10.00
2024-04-08T15:50:44.772Z,10.55
2024-04-08T15:53:11.245Z,10.20
2024-04-08T15:55:47.113Z,9.95
2024-04-08T15:58:13.949Z,8.98
2024-04-08T16:00:40.554Z,10.07
2024-04-08T16:03:10.859Z,7.85
2024-04-08T16:05:38.125Z,8.90
2024-04-08T16:08:05.200Z,8.43
2024-04-08T16:10:36.680Z,8.25
2024-04-08T16:13:03.818Z,7.22
2024-04-08T16:15:31.519Z,7.50
2024-04-08T16:17:58.174Z,8.60
2024-04-08T16:20:25.071Z,9.30
2024-04-08T16:23:09.024Z,9.27
2024-04-08T16:25:41.598Z,9.88
2024-04-08T16:28:08.293Z,8.00
2024-04-08T16:30:34.885Z,7.18
2024-04-08T16:33:01.618Z,7.97
2024-04-08T16:35:28.253Z,7.93
2024-04-08T16:37:54.840Z,8.35
2024-04-08T16:40:21.519Z,7.75
2024-04-08T16:42:48.066Z,8.27
2024-04-08T16:45:14.804Z,7.82
2024-04-08T16:47:41.462Z,6.47
2024-04-08T16:50:09.151Z,7.80
2024-04-08T16:52:35.608Z,7.28
2024-04-08T16:55:02.062Z,8.15
2024-04-08T16:57:28.573Z,7.88
2024-04-08T16:59:55.955Z,7.63
2024-04-08T17:02:22.599Z,7.72
2024-04-08T17:04:50.106Z,6.53
2024-04-08T17:07:16.622Z,7.60
2024-04-08T17:09:43.149Z,6.60
2024-04-08T17:12:10.797Z,7.32
2024-04-08T17:14:37.291Z,6.13
2024-04-08T17:17:03.996Z,6.43
2024-04-08T17:19:30.529Z,6.78
2024-04-08T17:21:57.734Z,5.50
2024-04-08T17:24:24.261Z,6.27
2024-04-08T17:26:51.109Z,5.22
2024-04-08T17:29:17.786Z,6.28
2024-04-08T17:31:44.438Z,6.53
2024-04-08T17:34:10.991Z,5.03
2024-04-08T17:36:37.634Z,7.18
2024-04-08T17:39:04.954Z,6.50
2024-04-08T17:41:31.527Z,6.45
2024-04-08T17:43:58.776Z,6.28
2024-04-08T17:46:25.532Z,6.63
2024-04-08T17:48:52.238Z,5.68
2024-04-08T17:51:18.946Z,5.70
2024-04-08T17:53:45.452Z,5.93
2024-04-08T17:56:13.401Z,6.28
2024-04-08T17:58:39.996Z,6.15
2024-04-08T18:01:08.676Z,6.97
2024-04-08T18:03:39.114Z,6.47
2024-04-08T18:06:09.354Z,6.40
2024-04-08T18:08:35.915Z,7.07
2024-04-08T18:11:04.261Z,6.72
2024-04-08T18:13:31.033Z,7.65
2024-04-08T18:15:57.508Z,7.40
2024-04-08T18:18:24.113Z,7.13
2024-04-08T18:21:11.037Z,6.85
2024-04-08T18:23:40.961Z,7.47
2024-04-08T18:26:14.950Z,7.70
2024-04-08T18:28:42.247Z,8.60
2024-04-08T18:31:12.809Z,7.37
2024-04-08T18:33:45.436Z,7.70
2024-04-08T18:36:14.014Z,7.57
2024-04-08T18:38:40.901Z,8.45
2024-04-08T18:41:08.924Z,9.05
2024-04-08T18:43:36.254Z,8.98
2024-04-08T18:46:03.802Z,9.03
2024-04-08T18:48:30.652Z,8.98
2024-04-08T18:50:57.227Z,8.98
2024-04-08T18:53:23.710Z,9.15
2024-04-08T18:55:50.197Z,9.13
2024-04-08T18:58:16.680Z,9.60
2024-04-08T19:00:43.395Z,9.55
2024-04-08T19:03:10.352Z,10.80
2024-04-08T19:05:39.571Z,10.15
2024-04-08T19:08:06.232Z,12.95
2024-04-08T19:10:32.839Z,12.48
2024-04-08T19:12:59.592Z,11.30
2024-04-08T19:15:26.137Z,10.75
2024-04-08T19:17:52.867Z,10.20
2024-04-08T19:20:19.550Z,10.68
2024-04-08T19:22:46.582Z,10.27
2024-04-08T19:25:13.284Z,11.07
2024-04-08T19:27:39.823Z,9.65
2024-04-08T19:30:06.919Z,10.65
2024-04-08T19:32:33.521Z,10.73
2024-04-08T19:35:00.075Z,11.82
2024-04-08T19:37:26.936Z,11.38
2024-04-08T19:39:53.569Z,11.48
2024-04-08T19:42:20.560Z,11.55
2024-04-08T19:44:47.049Z,10.85
2024-04-08T19:47:13.574Z,11.05
2024-04-08T19:49:40.876Z,11.32
2024-04-08T19:52:07.697Z,10.67
2024-04-08T19:54:34.514Z,11.23
2024-04-08T19:57:01.548Z,10.85
2024-04-08T19:59:28.397Z,12.20
2024-04-08T20:01:56.175Z,11.05
2024-04-08T20:04:22.812Z,11.18
2024-04-08T20:06:49.351Z,9.55
2024-04-08T20:09:16.133Z,10.02
2024-04-08T20:11:42.711Z,11.40
2024-04-08T20:14:09.315Z,10.95
2024-04-08T20:16:38.299Z,10.95
2024-04-08T20:19:05.033Z,10.23
2024-04-08T20:21:31.665Z,11.90
2024-04-08T20:23:58.364Z,13.48
2024-04-08T20:26:24.844Z,14.38
2024-04-08T20:28:51.500Z,11.13
2024-04-08T20:31:17.968Z,12.80
2024-04-08T20:33:45.495Z,11.85
2024-04-08T20:36:13.396Z,11.13
2024-04-08T20:38:40.104Z,10.77
2024-04-08T20:41:07.793Z,11.48
2024-04-08T20:43:34.912Z,11.20
2024-04-08T20:46:01.522Z,11.27
2024-04-08T20:48:28.096Z,10.65
2024-04-08T20:50:58.463Z,11.82
2024-04-08T20:53:25.863Z,12.75
2024-04-08T20:55:56.359Z,12.15
2024-04-08T20:58:23.144Z,12.20
2024-04-08T21:00:49.704Z,10.57
2024-04-08T21:03:16.528Z,11.85
2024-04-08T21:05:43.174Z,11.85
2024-04-08T21:08:09.652Z,12.10
2024-04-08T21:10:36.144Z,13.07
2024-04-08T21:13:02.603Z,12.35
2024-04-08T21:15:29.397Z,12.35
2024-04-08T21:17:58.330Z,11.55
2024-04-08T21:20:24.930Z,10.65
2024-04-08T21:22:51.397Z,10.48
2024-04-08T21:25:17.935Z,11.68
2024-04-08T21:27:44.490Z,11.13
2024-04-08T21:30:12.439Z,10.63
2024-04-08T21:32:39.087Z,11.15
2024-04-08T21:35:05.645Z,11.63
2024-04-08T21:37:32.173Z,11.27
2024-04-08T21:39:58.621Z,11.32
2024-04-08T21:42:25.161Z,10.13
2024-04-08T21:44:51.824Z,10.77
2024-04-08T21:47:18.263Z,9.77
2024-04-08T21:49:44.951Z,10.88
2024-04-08T21:52:11.491Z,10.73
2024-04-08T21:54:38.092Z,9.55
2024-04-08T21:57:04.856Z,11.13
2024-04-08T21:59:31.366Z,11.02
2024-04-08T22:01:57.830Z,11.52
2024-04-08T22:04:24.462Z,12.13
2024-04-08T22:06:51.149Z,11.38
2024-04-08T22:09:17.850Z,11.07
2024-04-08T22:11:44.386Z,10.95
2024-04-08T22:14:10.857Z,11.45
2024-04-08T22:16:37.341Z,11.10
2024-04-08T22:19:04.066Z,11.20
2024-04-08T22:21:30.731Z,11.10
2024-04-08T22:23:57.799Z,11.32
2024-04-08T22:26:24.265Z,12.20
2024-04-08T22:28:50.733Z,11.30
2024-04-08T22:31:17.229Z,11.60
2024-04-08T22:33:43.893Z,11.40
2024-04-08T22:36:10.607Z,10.98
2024-04-08T22:38:37.876Z,11.60
2024-04-08T22:41:12.744Z,11.48
2024-04-08T22:43:45.560Z,12.35
2024-04-08T22:46:12.232Z,11.70
2024-04-08T22:48:38.823Z,11.25
2024-04-08T22:51:06.343Z,11.88
2024-04-08T22:53:32.823Z,11.93
2024-04-08T22:55:59.487Z,9.10
2024-04-08T22:58:26.058Z,11.10
2024-04-08T23:00:52.595Z,11.60
2024-04-08T23:03:19.726Z,13.10
2024-04-08T23:05:46.519Z,13.02
2024-04-08T23:08:12.992Z,11.00
2024-04-08T23:10:39.468Z,14.25
2024-04-08T23:13:05.928Z,12.48
2024-04-08T23:15:32.958Z,12.63
2024-04-08T23:17:59.592Z,13.05
2024-04-08T23:20:26.123Z,10.60
2024-04-08T23:22:52.598Z,9.40
2024-04-08T23:25:19.130Z,9.20
2024-04-08T23:27:45.709Z,9.27
2024-04-08T23:30:12.350Z,9.25
2024-04-08T23:32:39.041Z,7.40
2024-04-08T23:35:05.822Z,7.82
2024-04-08T23:37:32.348Z,7.53
2024-04-08T23:39:58.967Z,7.18
2024-04-08T23:42:25.500Z,7.18
2024-04-08T23:44:52.098Z,7.63
2024-04-08T23:47:18.634Z,6.47
2024-04-08T23:49:45.181Z,6.95
2024-04-08T23:52:12.310Z,6.55
2024-04-08T23:54:38.853Z,6.45
2024-04-08T23:57:05.499Z,6.30
2024-04-08T23:59:32.907Z,6.03
